DAL2254 KMIA-KBOS
Flight info
| Callsign | DAL2254 |
|---|---|
| Flight time | 2h 56m |
| Altitude | 40000 |
| Route | FOLZZ3 ALYRA GRUBR/N0484F410 Y299 SEELO WAALT Q131 EARZZ JAMIE Q133 JFK ROBUC3 |
| Aircraft | A359/H-SDE2E3GHIJ3J4J5LM1ORWXY/LB1D1 |
Departure
| Time | 2026-05-06 02:05 |
|---|---|
| Airport | Miami International Airport (KMIA) |
Arrival
| Time | 2026-05-06 05:01 |
|---|---|
| Airport | Boston Logan International Airport (KBOS) |
| Time | Latitude | Longitude | Altitude | Speed | Heading |
|---|---|---|---|---|---|
| 2026-05-06 01:38 | 25.79120 | -80.27587 | 28 ft | 4 kts | 267° |
| 2026-05-06 01:39 | 25.79121 | -80.27563 | 27 ft | 4 kts | 262° |
| 2026-05-06 01:39 | 25.79130 | -80.27540 | 29 ft | 4 kts | 202° |
| 2026-05-06 01:39 | 25.79153 | -80.27538 | 29 ft | 4 kts | 178° |
| 2026-05-06 01:39 | 25.79173 | -80.27539 | 26 ft | 0 kts | 178° |
| 2026-05-06 01:56 | 25.79166 | -80.27538 | 23 ft | 2 kts | 178° |
| 2026-05-06 01:56 | 25.79152 | -80.27538 | 28 ft | 4 kts | 180° |
| 2026-05-06 01:56 | 25.79107 | -80.27536 | 27 ft | 9 kts | 177° |
| 2026-05-06 01:56 | 25.79065 | -80.27533 | 25 ft | 0 kts | 177° |
| 2026-05-06 01:57 | 25.79043 | -80.27532 | 27 ft | 8 kts | 177° |
| 2026-05-06 01:57 | 25.78979 | -80.27529 | 29 ft | 6 kts | 179° |
| 2026-05-06 01:57 | 25.78954 | -80.27533 | 29 ft | 4 kts | 194° |
| 2026-05-06 01:57 | 25.78920 | -80.27558 | 27 ft | 8 kts | 226° |
| 2026-05-06 01:58 | 25.78894 | -80.27622 | 26 ft | 11 kts | 255° |
| 2026-05-06 01:58 | 25.78881 | -80.27730 | 24 ft | 16 kts | 265° |
| 2026-05-06 01:58 | 25.78875 | -80.27849 | 26 ft | 13 kts | 268° |
| 2026-05-06 01:58 | 25.78885 | -80.27955 | 28 ft | 15 kts | 289° |
| 2026-05-06 01:59 | 25.78933 | -80.28061 | 28 ft | 13 kts | 298° |
| 2026-05-06 01:59 | 25.78977 | -80.28168 | 27 ft | 17 kts | 279° |
| 2026-05-06 01:59 | 25.78970 | -80.28318 | 30 ft | 22 kts | 266° |
| 2026-05-06 01:59 | 25.78963 | -80.28497 | 26 ft | 25 kts | 267° |
| 2026-05-06 02:00 | 25.78954 | -80.28711 | 20 ft | 30 kts | 268° |
| 2026-05-06 02:00 | 25.78935 | -80.28930 | 22 ft | 26 kts | 253° |
| 2026-05-06 02:00 | 25.78900 | -80.29122 | 25 ft | 27 kts | 268° |
| 2026-05-06 02:00 | 25.78893 | -80.29326 | 26 ft | 25 kts | 268° |
| 2026-05-06 02:01 | 25.78887 | -80.29524 | 27 ft | 26 kts | 268° |
| 2026-05-06 02:01 | 25.78878 | -80.29739 | 25 ft | 29 kts | 267° |
| 2026-05-06 02:01 | 25.78869 | -80.29966 | 28 ft | 30 kts | 267° |
| 2026-05-06 02:01 | 25.78859 | -80.30206 | 27 ft | 31 kts | 267° |
| 2026-05-06 02:02 | 25.78849 | -80.30453 | 24 ft | 33 kts | 267° |
| 2026-05-06 02:02 | 25.78841 | -80.30661 | 25 ft | 28 kts | 267° |
| 2026-05-06 02:02 | 25.78832 | -80.30879 | 23 ft | 21 kts | 268° |
| 2026-05-06 02:02 | 25.78826 | -80.31012 | 28 ft | 18 kts | 267° |
| 2026-05-06 02:03 | 25.78819 | -80.31166 | 26 ft | 22 kts | 267° |
| 2026-05-06 02:03 | 25.78812 | -80.31325 | 29 ft | 16 kts | 268° |
| 2026-05-06 02:03 | 25.78805 | -80.31427 | 26 ft | 10 kts | 255° |
| 2026-05-06 02:03 | 25.78738 | -80.31469 | 28 ft | 14 kts | 185° |
| 2026-05-06 02:04 | 25.78633 | -80.31450 | 24 ft | 16 kts | 138° |
| 2026-05-06 02:04 | 25.78618 | -80.31397 | 23 ft | 0 kts | 88° |
| 2026-05-06 02:04 | 25.78618 | -80.31396 | 23 ft | 1 kts | 88° |
| 2026-05-06 02:04 | 25.78624 | -80.31235 | 29 ft | 52 kts | 88° |
| 2026-05-06 02:05 | 25.78654 | -80.30544 | 29 ft | 124 kts | 88° |
| 2026-05-06 02:05 | 25.78702 | -80.29362 | 125 ft | 174 kts | 85° |
| 2026-05-06 02:05 | 25.78774 | -80.28011 | 906 ft | 172 kts | 85° |
| 2026-05-06 02:05 | 25.78761 | -80.26663 | 1619 ft | 186 kts | 95° |
| 2026-05-06 02:06 | 25.78465 | -80.25161 | 1961 ft | 212 kts | 103° |
| 2026-05-06 02:06 | 25.78081 | -80.23517 | 2447 ft | 234 kts | 103° |
| 2026-05-06 02:06 | 25.77669 | -80.21702 | 3093 ft | 249 kts | 103° |
| 2026-05-06 02:06 | 25.77259 | -80.19849 | 3803 ft | 259 kts | 104° |
| 2026-05-06 02:07 | 25.76714 | -80.17898 | 4508 ft | 270 kts | 114° |
| 2026-05-06 02:07 | 25.75862 | -80.16023 | 5269 ft | 277 kts | 119° |
| 2026-05-06 02:07 | 25.74924 | -80.14108 | 6043 ft | 286 kts | 117° |
| 2026-05-06 02:07 | 25.74361 | -80.11972 | 6839 ft | 292 kts | 93° |
| 2026-05-06 02:08 | 25.74712 | -80.09783 | 7772 ft | 290 kts | 64° |
| 2026-05-06 02:08 | 25.75824 | -80.07952 | 8677 ft | 292 kts | 47° |
| 2026-05-06 02:08 | 25.77183 | -80.06238 | 9513 ft | 299 kts | 45° |
| 2026-05-06 02:08 | 25.78591 | -80.04502 | 10322 ft | 306 kts | 45° |
| 2026-05-06 02:09 | 25.80055 | -80.02679 | 10754 ft | 328 kts | 45° |
| 2026-05-06 02:09 | 25.81616 | -80.00720 | 11109 ft | 348 kts | 46° |
| 2026-05-06 02:09 | 25.83259 | -79.98644 | 11504 ft | 365 kts | 46° |
| 2026-05-06 02:09 | 25.84951 | -79.96497 | 12118 ft | 373 kts | 46° |
| 2026-05-06 02:10 | 25.86668 | -79.94313 | 12816 ft | 378 kts | 46° |
| 2026-05-06 02:10 | 25.88388 | -79.92124 | 13532 ft | 381 kts | 46° |
| 2026-05-06 02:10 | 25.90141 | -79.89893 | 14204 ft | 385 kts | 46° |
| 2026-05-06 02:10 | 25.91909 | -79.87642 | 14859 ft | 388 kts | 46° |
| 2026-05-06 02:11 | 25.93697 | -79.85366 | 15462 ft | 392 kts | 46° |
| 2026-05-06 02:11 | 25.95502 | -79.83066 | 16058 ft | 397 kts | 46° |
| 2026-05-06 02:11 | 25.97329 | -79.80737 | 16664 ft | 400 kts | 46° |
| 2026-05-06 02:11 | 25.99166 | -79.78393 | 17275 ft | 405 kts | 46° |
| 2026-05-06 02:12 | 26.01033 | -79.76011 | 17858 ft | 409 kts | 46° |
| 2026-05-06 02:12 | 26.02911 | -79.73614 | 18453 ft | 413 kts | 46° |
| 2026-05-06 02:12 | 26.04810 | -79.71189 | 18967 ft | 417 kts | 45° |
| 2026-05-06 02:12 | 26.06723 | -79.68744 | 19492 ft | 421 kts | 45° |
| 2026-05-06 02:13 | 26.08652 | -79.66277 | 20023 ft | 424 kts | 45° |
| 2026-05-06 02:13 | 26.10567 | -79.63746 | 20564 ft | 430 kts | 48° |
| 2026-05-06 02:13 | 26.12326 | -79.61089 | 21079 ft | 434 kts | 50° |
| 2026-05-06 02:13 | 26.14081 | -79.58329 | 21603 ft | 438 kts | 50° |
| 2026-05-06 02:14 | 26.15849 | -79.55537 | 22113 ft | 442 kts | 50° |
| 2026-05-06 02:14 | 26.17636 | -79.52717 | 22636 ft | 446 kts | 50° |
| 2026-05-06 02:14 | 26.19432 | -79.49883 | 23148 ft | 450 kts | 50° |
| 2026-05-06 02:14 | 26.21241 | -79.47028 | 23637 ft | 454 kts | 50° |
| 2026-05-06 02:15 | 26.23072 | -79.44138 | 24062 ft | 457 kts | 49° |
| 2026-05-06 02:15 | 26.24911 | -79.41233 | 24561 ft | 459 kts | 49° |
| 2026-05-06 02:15 | 26.26761 | -79.38322 | 25066 ft | 461 kts | 49° |
| 2026-05-06 02:15 | 26.28772 | -79.35619 | 25601 ft | 457 kts | 39° |
| 2026-05-06 02:16 | 26.31169 | -79.33345 | 26179 ft | 449 kts | 29° |
| 2026-05-06 02:16 | 26.33764 | -79.31417 | 26749 ft | 449 kts | 26° |
| 2026-05-06 02:16 | 26.36405 | -79.29545 | 27320 ft | 451 kts | 26° |
| 2026-05-06 02:16 | 26.39057 | -79.27671 | 27881 ft | 453 kts | 26° |
| 2026-05-06 02:17 | 26.41723 | -79.25781 | 28444 ft | 455 kts | 26° |
| 2026-05-06 02:17 | 26.44396 | -79.23881 | 29014 ft | 457 kts | 26° |
| 2026-05-06 02:17 | 26.47078 | -79.21970 | 29583 ft | 459 kts | 26° |
| 2026-05-06 02:17 | 26.49770 | -79.20050 | 30186 ft | 459 kts | 25° |
| 2026-05-06 02:18 | 26.52470 | -79.18123 | 30634 ft | 461 kts | 25° |
| 2026-05-06 02:18 | 26.55182 | -79.16187 | 31033 ft | 464 kts | 25° |
| 2026-05-06 02:18 | 26.57911 | -79.14237 | 31431 ft | 466 kts | 25° |
| 2026-05-06 02:18 | 26.60648 | -79.12279 | 31828 ft | 468 kts | 25° |
| 2026-05-06 02:19 | 26.63401 | -79.10309 | 32200 ft | 470 kts | 25° |
| 2026-05-06 02:19 | 26.66163 | -79.08330 | 32577 ft | 472 kts | 25° |
| 2026-05-06 02:19 | 26.68937 | -79.06342 | 32927 ft | 474 kts | 24° |
| 2026-05-06 02:19 | 26.71724 | -79.04344 | 33296 ft | 476 kts | 24° |
| 2026-05-06 02:20 | 26.77272 | -79.00356 | 34378 ft | 469 kts | 24° |
| 2026-05-06 02:20 | 26.80012 | -78.98385 | 34825 ft | 467 kts | 24° |
| 2026-05-06 02:20 | 26.82702 | -78.96452 | 35215 ft | 466 kts | 23° |
| 2026-05-06 02:21 | 26.85429 | -78.94491 | 35606 ft | 465 kts | 23° |
| 2026-05-06 02:21 | 26.88149 | -78.92534 | 36004 ft | 463 kts | 23° |
| 2026-05-06 02:21 | 26.90862 | -78.90581 | 36375 ft | 462 kts | 23° |
| 2026-05-06 02:21 | 26.93568 | -78.88632 | 36738 ft | 461 kts | 23° |
| 2026-05-06 02:22 | 26.96271 | -78.86684 | 37095 ft | 460 kts | 23° |
| 2026-05-06 02:22 | 26.98957 | -78.84746 | 37450 ft | 459 kts | 22° |
| 2026-05-06 02:22 | 27.01645 | -78.82806 | 37805 ft | 458 kts | 22° |
| 2026-05-06 02:22 | 27.04323 | -78.80872 | 38184 ft | 457 kts | 22° |
| 2026-05-06 02:23 | 27.06993 | -78.78943 | 38503 ft | 456 kts | 22° |
| 2026-05-06 02:23 | 27.09658 | -78.77017 | 38808 ft | 455 kts | 22° |
| 2026-05-06 02:23 | 27.12284 | -78.75118 | 39049 ft | 455 kts | 22° |
| 2026-05-06 02:23 | 27.14946 | -78.73192 | 39286 ft | 454 kts | 22° |
| 2026-05-06 02:24 | 27.17601 | -78.71270 | 39512 ft | 454 kts | 22° |
| 2026-05-06 02:24 | 27.20258 | -78.69345 | 39737 ft | 454 kts | 22° |
| 2026-05-06 02:24 | 27.22913 | -78.67421 | 39962 ft | 454 kts | 22° |
| 2026-05-06 02:24 | 27.25594 | -78.65573 | 40067 ft | 449 kts | 18° |
| 2026-05-06 02:25 | 27.28381 | -78.64108 | 40083 ft | 437 kts | 11° |
| 2026-05-06 02:25 | 27.31250 | -78.63128 | 40092 ft | 426 kts | 3° |
| 2026-05-06 02:25 | 27.34145 | -78.62588 | 40082 ft | 420 kts | 359° |
| 2026-05-06 02:26 | 27.39954 | -78.61833 | 40092 ft | 419 kts | 358° |
| 2026-05-06 02:26 | 27.45756 | -78.61091 | 40093 ft | 419 kts | 358° |
| 2026-05-06 02:27 | 27.51555 | -78.60342 | 40089 ft | 419 kts | 358° |
| 2026-05-06 02:27 | 27.57351 | -78.59590 | 40088 ft | 419 kts | 358° |
| 2026-05-06 02:28 | 27.63116 | -78.58840 | 40093 ft | 419 kts | 358° |
| 2026-05-06 02:28 | 27.68917 | -78.58086 | 40090 ft | 419 kts | 358° |
| 2026-05-06 02:29 | 27.74717 | -78.57330 | 40091 ft | 419 kts | 358° |
| 2026-05-06 02:29 | 27.80444 | -78.56583 | 40093 ft | 419 kts | 358° |
| 2026-05-06 02:30 | 27.86240 | -78.55826 | 40091 ft | 419 kts | 358° |
| 2026-05-06 02:30 | 27.92046 | -78.55067 | 40100 ft | 419 kts | 358° |
| 2026-05-06 02:31 | 27.97848 | -78.54308 | 40097 ft | 420 kts | 358° |
| 2026-05-06 02:31 | 28.03655 | -78.53547 | 40097 ft | 420 kts | 358° |
| 2026-05-06 02:32 | 28.09464 | -78.52785 | 40100 ft | 420 kts | 358° |
| 2026-05-06 02:32 | 28.15232 | -78.52028 | 40101 ft | 420 kts | 358° |
| 2026-05-06 02:33 | 28.21052 | -78.51263 | 40103 ft | 420 kts | 358° |
| 2026-05-06 02:33 | 28.22980 | -78.51009 | 40100 ft | 421 kts | 358° |
| 2026-05-06 02:34 | 28.32693 | -78.49730 | 40100 ft | 421 kts | 358° |
| 2026-05-06 02:34 | 28.38515 | -78.48962 | 40100 ft | 421 kts | 358° |
| 2026-05-06 02:35 | 28.44296 | -78.48199 | 40102 ft | 421 kts | 358° |
| 2026-05-06 02:35 | 28.50127 | -78.47428 | 40108 ft | 421 kts | 358° |
| 2026-05-06 02:36 | 28.55958 | -78.46657 | 40104 ft | 422 kts | 358° |
| 2026-05-06 02:36 | 28.61790 | -78.45884 | 40105 ft | 422 kts | 358° |
| 2026-05-06 02:37 | 28.67579 | -78.45116 | 40107 ft | 422 kts | 358° |
| 2026-05-06 02:37 | 28.73411 | -78.44342 | 40109 ft | 421 kts | 358° |
| 2026-05-06 02:38 | 28.79242 | -78.43567 | 40108 ft | 422 kts | 358° |
| 2026-05-06 02:38 | 28.85080 | -78.42791 | 40105 ft | 422 kts | 358° |
| 2026-05-06 02:39 | 28.90923 | -78.42012 | 40106 ft | 422 kts | 358° |
| 2026-05-06 02:39 | 28.96757 | -78.41234 | 40108 ft | 422 kts | 358° |
| 2026-05-06 02:40 | 29.02587 | -78.40456 | 40114 ft | 422 kts | 358° |
| 2026-05-06 02:40 | 29.08390 | -78.39680 | 40114 ft | 422 kts | 358° |
| 2026-05-06 02:41 | 29.14269 | -78.38893 | 40109 ft | 422 kts | 358° |
| 2026-05-06 02:41 | 29.20067 | -78.38117 | 40112 ft | 422 kts | 358° |
| 2026-05-06 02:42 | 29.25910 | -78.37333 | 40113 ft | 422 kts | 358° |
| 2026-05-06 02:42 | 29.31756 | -78.36548 | 40135 ft | 422 kts | 358° |
| 2026-05-06 02:43 | 29.37605 | -78.35762 | 40113 ft | 423 kts | 358° |
| 2026-05-06 02:43 | 29.43463 | -78.34974 | 40113 ft | 423 kts | 358° |
| 2026-05-06 02:44 | 29.48294 | -78.34735 | 40113 ft | 412 kts | 348° |
| 2026-05-06 02:44 | 29.53848 | -78.35909 | 40112 ft | 403 kts | 339° |
| 2026-05-06 02:45 | 29.59207 | -78.37619 | 40115 ft | 402 kts | 338° |
| 2026-05-06 02:45 | 29.64581 | -78.39413 | 40116 ft | 402 kts | 338° |
| 2026-05-06 02:46 | 29.69968 | -78.41195 | 40115 ft | 402 kts | 338° |
| 2026-05-06 02:46 | 29.75359 | -78.42957 | 40113 ft | 403 kts | 338° |
| 2026-05-06 02:47 | 29.80752 | -78.44715 | 40114 ft | 403 kts | 338° |
| 2026-05-06 02:47 | 29.86143 | -78.46474 | 40116 ft | 402 kts | 338° |
| 2026-05-06 02:48 | 29.91505 | -78.48227 | 40122 ft | 403 kts | 338° |
| 2026-05-06 02:48 | 29.96907 | -78.49996 | 40112 ft | 404 kts | 338° |
| 2026-05-06 02:49 | 30.02317 | -78.51769 | 40117 ft | 404 kts | 338° |
| 2026-05-06 02:49 | 30.07729 | -78.53544 | 40115 ft | 404 kts | 338° |
| 2026-05-06 02:50 | 30.13161 | -78.55106 | 40120 ft | 409 kts | 344° |
| 2026-05-06 02:50 | 30.18933 | -78.55311 | 40119 ft | 422 kts | 356° |
| 2026-05-06 02:51 | 30.24803 | -78.54593 | 40111 ft | 425 kts | 358° |
| 2026-05-06 02:51 | 30.30680 | -78.53713 | 40115 ft | 426 kts | 358° |
| 2026-05-06 02:52 | 30.36559 | -78.52833 | 40119 ft | 425 kts | 358° |
| 2026-05-06 02:52 | 30.42437 | -78.51978 | 40115 ft | 425 kts | 358° |
| 2026-05-06 02:53 | 30.48280 | -78.51081 | 40116 ft | 427 kts | 359° |
| 2026-05-06 02:53 | 30.54171 | -78.50101 | 40113 ft | 428 kts | 359° |
| 2026-05-06 02:54 | 30.60067 | -78.49124 | 40115 ft | 427 kts | 359° |
| 2026-05-06 02:54 | 30.65930 | -78.48167 | 40115 ft | 427 kts | 359° |
| 2026-05-06 02:55 | 30.71822 | -78.47210 | 40116 ft | 427 kts | 359° |
| 2026-05-06 02:55 | 30.77727 | -78.46251 | 40116 ft | 429 kts | 359° |
| 2026-05-06 02:56 | 30.83648 | -78.45289 | 40116 ft | 429 kts | 359° |
| 2026-05-06 02:56 | 30.89531 | -78.44329 | 40119 ft | 429 kts | 359° |
| 2026-05-06 02:57 | 30.95461 | -78.43360 | 40118 ft | 429 kts | 359° |
| 2026-05-06 02:57 | 31.01396 | -78.42389 | 40133 ft | 429 kts | 359° |
| 2026-05-06 02:58 | 31.07330 | -78.41419 | 40121 ft | 431 kts | 359° |
| 2026-05-06 02:58 | 31.13248 | -78.40450 | 40121 ft | 431 kts | 359° |
| 2026-05-06 02:59 | 31.19203 | -78.39472 | 40118 ft | 431 kts | 359° |
| 2026-05-06 02:59 | 31.25139 | -78.38496 | 40121 ft | 431 kts | 359° |
| 2026-05-06 03:00 | 31.31068 | -78.37521 | 40122 ft | 432 kts | 359° |
| 2026-05-06 03:00 | 31.37032 | -78.36540 | 40124 ft | 433 kts | 359° |
| 2026-05-06 03:01 | 31.43004 | -78.35554 | 40123 ft | 433 kts | 359° |
| 2026-05-06 03:01 | 31.48992 | -78.34565 | 40121 ft | 434 kts | 359° |
| 2026-05-06 03:02 | 31.54971 | -78.33576 | 40142 ft | 434 kts | 359° |
| 2026-05-06 03:02 | 31.60959 | -78.32586 | 40123 ft | 436 kts | 359° |
| 2026-05-06 03:03 | 31.66934 | -78.31596 | 40121 ft | 436 kts | 359° |
| 2026-05-06 03:03 | 31.72951 | -78.30596 | 40122 ft | 436 kts | 359° |
| 2026-05-06 03:04 | 31.78968 | -78.29595 | 40121 ft | 436 kts | 359° |
| 2026-05-06 03:04 | 31.84987 | -78.28594 | 40121 ft | 437 kts | 360° |
| 2026-05-06 03:05 | 31.91012 | -78.27591 | 40119 ft | 437 kts | 360° |
| 2026-05-06 03:05 | 31.97043 | -78.26584 | 40116 ft | 437 kts | 360° |
| 2026-05-06 03:06 | 32.03037 | -78.25582 | 40118 ft | 437 kts | 359° |
| 2026-05-06 03:06 | 32.09064 | -78.24374 | 40136 ft | 440 kts | 2° |
| 2026-05-06 03:07 | 32.15093 | -78.23009 | 40125 ft | 441 kts | 2° |
| 2026-05-06 03:07 | 32.21137 | -78.21659 | 40124 ft | 441 kts | 2° |
| 2026-05-06 03:08 | 32.27177 | -78.20342 | 40122 ft | 441 kts | 2° |
| 2026-05-06 03:08 | 32.33221 | -78.19036 | 40118 ft | 441 kts | 2° |
| 2026-05-06 03:09 | 32.39257 | -78.17732 | 40119 ft | 441 kts | 2° |
| 2026-05-06 03:09 | 32.45256 | -78.16432 | 40121 ft | 441 kts | 2° |
| 2026-05-06 03:10 | 32.51297 | -78.15121 | 40121 ft | 441 kts | 2° |
| 2026-05-06 03:10 | 32.57341 | -78.13806 | 40121 ft | 441 kts | 2° |
| 2026-05-06 03:11 | 32.63383 | -78.12491 | 40119 ft | 441 kts | 2° |
| 2026-05-06 03:11 | 32.69427 | -78.11173 | 40119 ft | 441 kts | 2° |
| 2026-05-06 03:12 | 32.75471 | -78.09854 | 40122 ft | 441 kts | 2° |
| 2026-05-06 03:12 | 32.81482 | -78.08540 | 40121 ft | 441 kts | 2° |
| 2026-05-06 03:13 | 32.87524 | -78.07217 | 40117 ft | 441 kts | 2° |
| 2026-05-06 03:13 | 32.93564 | -78.05893 | 40116 ft | 441 kts | 2° |
| 2026-05-06 03:14 | 32.99606 | -78.04567 | 40120 ft | 441 kts | 2° |
| 2026-05-06 03:14 | 33.05651 | -78.03238 | 40118 ft | 441 kts | 2° |
| 2026-05-06 03:15 | 33.11702 | -78.01906 | 40133 ft | 441 kts | 2° |
| 2026-05-06 03:15 | 33.17704 | -78.00583 | 40116 ft | 441 kts | 2° |
| 2026-05-06 03:16 | 33.23748 | -77.99249 | 40115 ft | 441 kts | 2° |
| 2026-05-06 03:16 | 33.29795 | -77.97912 | 40115 ft | 442 kts | 2° |
| 2026-05-06 03:17 | 33.35847 | -77.96572 | 40116 ft | 442 kts | 2° |
| 2026-05-06 03:17 | 33.41893 | -77.95232 | 40117 ft | 442 kts | 2° |
| 2026-05-06 03:18 | 33.47940 | -77.93889 | 40117 ft | 442 kts | 2° |
| 2026-05-06 03:18 | 33.53955 | -77.92552 | 40116 ft | 442 kts | 2° |
| 2026-05-06 03:19 | 33.60000 | -77.91206 | 40116 ft | 442 kts | 2° |
| 2026-05-06 03:19 | 33.66046 | -77.89858 | 40113 ft | 442 kts | 2° |
| 2026-05-06 03:20 | 33.75096 | -77.87838 | 40112 ft | 442 kts | 2° |
| 2026-05-06 03:20 | 33.81157 | -77.86477 | 40116 ft | 443 kts | 2° |
| 2026-05-06 03:21 | 33.87202 | -77.84976 | 40116 ft | 444 kts | 4° |
| 2026-05-06 03:21 | 33.93247 | -77.83415 | 40116 ft | 444 kts | 4° |
| 2026-05-06 03:22 | 33.99295 | -77.81870 | 40114 ft | 444 kts | 4° |
| 2026-05-06 03:22 | 34.05352 | -77.80337 | 40113 ft | 444 kts | 4° |
| 2026-05-06 03:23 | 34.11410 | -77.78809 | 40113 ft | 444 kts | 4° |
| 2026-05-06 03:23 | 34.17426 | -77.77288 | 40113 ft | 444 kts | 4° |
| 2026-05-06 03:24 | 34.23485 | -77.75754 | 40111 ft | 445 kts | 4° |
| 2026-05-06 03:24 | 34.29539 | -77.74218 | 40104 ft | 445 kts | 4° |
| 2026-05-06 03:25 | 34.35595 | -77.72680 | 40110 ft | 444 kts | 4° |
| 2026-05-06 03:25 | 34.41650 | -77.71139 | 40112 ft | 445 kts | 3° |
| 2026-05-06 03:26 | 34.47688 | -77.69601 | 40111 ft | 445 kts | 4° |
| 2026-05-06 03:26 | 34.53746 | -77.68026 | 40103 ft | 448 kts | 6° |
| 2026-05-06 03:27 | 34.59670 | -77.65326 | 40113 ft | 460 kts | 15° |
| 2026-05-06 03:27 | 34.65470 | -77.61958 | 40119 ft | 463 kts | 17° |
| 2026-05-06 03:28 | 34.71241 | -77.58476 | 40132 ft | 463 kts | 17° |
| 2026-05-06 03:28 | 34.77015 | -77.54990 | 40128 ft | 462 kts | 17° |
| 2026-05-06 03:29 | 34.82784 | -77.51525 | 40128 ft | 462 kts | 17° |
| 2026-05-06 03:29 | 34.88552 | -77.48066 | 40128 ft | 462 kts | 17° |
| 2026-05-06 03:30 | 34.94284 | -77.44624 | 40122 ft | 462 kts | 17° |
| 2026-05-06 03:30 | 35.00053 | -77.41153 | 40116 ft | 462 kts | 17° |
| 2026-05-06 03:31 | 35.05820 | -77.37676 | 40118 ft | 462 kts | 17° |
| 2026-05-06 03:31 | 35.11597 | -77.34188 | 40124 ft | 462 kts | 17° |
| 2026-05-06 03:32 | 35.16390 | -77.31290 | 40112 ft | 463 kts | 17° |
| 2026-05-06 03:32 | 35.22167 | -77.27792 | 40109 ft | 463 kts | 17° |
| 2026-05-06 03:33 | 35.27938 | -77.24292 | 40106 ft | 463 kts | 17° |
| 2026-05-06 03:33 | 35.33710 | -77.20785 | 40109 ft | 462 kts | 17° |
| 2026-05-06 03:34 | 35.39463 | -77.17284 | 40111 ft | 461 kts | 17° |
| 2026-05-06 03:34 | 35.45165 | -77.13809 | 40115 ft | 461 kts | 17° |
| 2026-05-06 03:35 | 35.50915 | -77.10301 | 40119 ft | 461 kts | 17° |
| 2026-05-06 03:35 | 35.56658 | -77.06791 | 40135 ft | 461 kts | 17° |
| 2026-05-06 03:36 | 35.62403 | -77.03273 | 40120 ft | 461 kts | 17° |
| 2026-05-06 03:36 | 35.68151 | -76.99747 | 40116 ft | 461 kts | 17° |
| 2026-05-06 03:37 | 35.73894 | -76.96219 | 40111 ft | 461 kts | 17° |
| 2026-05-06 03:37 | 35.79635 | -76.92687 | 40116 ft | 461 kts | 17° |
| 2026-05-06 03:38 | 35.85342 | -76.89170 | 40096 ft | 462 kts | 17° |
| 2026-05-06 03:38 | 35.91091 | -76.85621 | 40106 ft | 462 kts | 17° |
| 2026-05-06 03:39 | 35.96903 | -76.82380 | 40100 ft | 454 kts | 13° |
| 2026-05-06 03:39 | 36.02758 | -76.79486 | 40115 ft | 453 kts | 12° |
| 2026-05-06 03:40 | 36.08582 | -76.76582 | 40107 ft | 455 kts | 13° |
| 2026-05-06 03:40 | 36.14433 | -76.73586 | 40105 ft | 455 kts | 13° |
| 2026-05-06 03:41 | 36.20280 | -76.70556 | 40101 ft | 455 kts | 13° |
| 2026-05-06 03:41 | 36.26140 | -76.67510 | 40099 ft | 456 kts | 13° |
| 2026-05-06 03:42 | 36.31999 | -76.64463 | 40084 ft | 457 kts | 13° |
| 2026-05-06 03:42 | 36.37822 | -76.61433 | 40080 ft | 457 kts | 13° |
| 2026-05-06 03:43 | 36.43685 | -76.58376 | 40073 ft | 457 kts | 13° |
| 2026-05-06 03:43 | 36.49555 | -76.55310 | 40081 ft | 457 kts | 13° |
| 2026-05-06 03:44 | 36.55433 | -76.52238 | 40069 ft | 459 kts | 13° |
| 2026-05-06 03:44 | 36.61324 | -76.49151 | 40091 ft | 459 kts | 14° |
| 2026-05-06 03:45 | 36.67166 | -76.46082 | 40072 ft | 457 kts | 14° |
| 2026-05-06 03:45 | 36.73028 | -76.43001 | 40075 ft | 457 kts | 14° |
| 2026-05-06 03:46 | 36.78910 | -76.39906 | 40072 ft | 458 kts | 14° |
| 2026-05-06 03:46 | 36.84787 | -76.36807 | 40075 ft | 459 kts | 14° |
| 2026-05-06 03:47 | 36.90663 | -76.33702 | 40053 ft | 459 kts | 14° |
| 2026-05-06 03:47 | 36.96543 | -76.30591 | 40056 ft | 459 kts | 14° |
| 2026-05-06 03:48 | 37.02439 | -76.27467 | 40053 ft | 460 kts | 14° |
| 2026-05-06 03:48 | 37.08303 | -76.24352 | 40039 ft | 460 kts | 14° |
| 2026-05-06 03:49 | 37.14209 | -76.21210 | 40042 ft | 460 kts | 14° |
| 2026-05-06 03:49 | 37.20103 | -76.18071 | 40050 ft | 461 kts | 14° |
| 2026-05-06 03:50 | 37.25983 | -76.14934 | 40051 ft | 462 kts | 14° |
| 2026-05-06 03:50 | 37.31824 | -76.11810 | 40050 ft | 461 kts | 14° |
| 2026-05-06 03:51 | 37.37701 | -76.08661 | 40070 ft | 461 kts | 14° |
| 2026-05-06 03:51 | 37.43624 | -76.05486 | 40055 ft | 463 kts | 14° |
| 2026-05-06 03:52 | 37.49555 | -76.02300 | 40054 ft | 463 kts | 14° |
| 2026-05-06 03:52 | 37.55490 | -75.99105 | 40037 ft | 463 kts | 14° |
| 2026-05-06 03:53 | 37.61344 | -75.95591 | 40033 ft | 473 kts | 22° |
| 2026-05-06 03:53 | 37.66902 | -75.91191 | 40051 ft | 476 kts | 24° |
| 2026-05-06 03:54 | 37.72446 | -75.86592 | 40052 ft | 477 kts | 24° |
| 2026-05-06 03:54 | 37.77981 | -75.81965 | 40054 ft | 477 kts | 24° |
| 2026-05-06 03:55 | 37.83490 | -75.77370 | 40060 ft | 477 kts | 24° |
| 2026-05-06 03:55 | 37.89077 | -75.72715 | 40041 ft | 477 kts | 24° |
| 2026-05-06 03:56 | 37.94591 | -75.68115 | 40043 ft | 477 kts | 24° |
| 2026-05-06 03:56 | 38.00137 | -75.63480 | 40031 ft | 477 kts | 24° |
| 2026-05-06 03:57 | 38.05689 | -75.58831 | 40024 ft | 478 kts | 25° |
| 2026-05-06 03:57 | 38.11248 | -75.54169 | 40019 ft | 479 kts | 25° |
| 2026-05-06 03:58 | 38.16778 | -75.49520 | 40014 ft | 479 kts | 25° |
| 2026-05-06 03:58 | 38.22334 | -75.44841 | 40022 ft | 479 kts | 25° |
| 2026-05-06 03:59 | 38.28170 | -75.41113 | 40013 ft | 460 kts | 10° |
| 2026-05-06 03:59 | 38.34296 | -75.39313 | 40007 ft | 448 kts | 2° |
| 2026-05-06 04:00 | 38.40438 | -75.37991 | 40009 ft | 447 kts | 1° |
| 2026-05-06 04:00 | 38.45547 | -75.36949 | 40016 ft | 447 kts | 1° |
| 2026-05-06 04:01 | 38.52724 | -75.35459 | 40005 ft | 448 kts | 1° |
| 2026-05-06 04:01 | 38.58834 | -75.34163 | 40008 ft | 448 kts | 1° |
| 2026-05-06 04:02 | 38.64983 | -75.32850 | 40008 ft | 448 kts | 1° |
| 2026-05-06 04:02 | 38.71145 | -75.31532 | 39990 ft | 448 kts | 1° |
| 2026-05-06 04:03 | 38.77267 | -75.29674 | 39993 ft | 461 kts | 12° |
| 2026-05-06 04:03 | 38.83095 | -75.26094 | 39990 ft | 470 kts | 19° |
| 2026-05-06 04:04 | 38.88808 | -75.22060 | 39995 ft | 472 kts | 20° |
| 2026-05-06 04:04 | 38.94529 | -75.17935 | 39986 ft | 474 kts | 20° |
| 2026-05-06 04:05 | 39.00290 | -75.13796 | 39984 ft | 474 kts | 20° |
| 2026-05-06 04:05 | 39.06065 | -75.09668 | 39985 ft | 474 kts | 20° |
| 2026-05-06 04:06 | 39.11849 | -75.05535 | 40007 ft | 475 kts | 20° |
| 2026-05-06 04:06 | 39.17553 | -75.01446 | 39976 ft | 470 kts | 20° |
| 2026-05-06 04:07 | 39.23261 | -74.97347 | 39992 ft | 468 kts | 20° |
| 2026-05-06 04:07 | 39.28814 | -74.92828 | 39992 ft | 475 kts | 26° |
| 2026-05-06 04:08 | 39.34266 | -74.87929 | 39987 ft | 478 kts | 26° |
| 2026-05-06 04:08 | 39.39692 | -74.82970 | 39974 ft | 478 kts | 27° |
| 2026-05-06 04:09 | 39.45126 | -74.77992 | 39974 ft | 478 kts | 26° |
| 2026-05-06 04:09 | 39.50567 | -74.73011 | 39979 ft | 479 kts | 27° |
| 2026-05-06 04:10 | 39.55985 | -74.68047 | 39979 ft | 480 kts | 27° |
| 2026-05-06 04:10 | 39.61446 | -74.63033 | 39981 ft | 480 kts | 27° |
| 2026-05-06 04:11 | 39.66896 | -74.58019 | 39968 ft | 480 kts | 27° |
| 2026-05-06 04:11 | 39.72340 | -74.53000 | 39961 ft | 480 kts | 27° |
| 2026-05-06 04:12 | 39.77759 | -74.47996 | 39967 ft | 480 kts | 27° |
| 2026-05-06 04:12 | 39.83206 | -74.42954 | 39969 ft | 480 kts | 27° |
| 2026-05-06 04:13 | 39.88658 | -74.37901 | 39974 ft | 482 kts | 27° |
| 2026-05-06 04:13 | 39.94165 | -74.32787 | 39970 ft | 483 kts | 27° |
| 2026-05-06 04:14 | 39.99603 | -74.27722 | 39963 ft | 483 kts | 27° |
| 2026-05-06 04:14 | 40.05068 | -74.22623 | 39976 ft | 483 kts | 27° |
| 2026-05-06 04:15 | 40.10555 | -74.17507 | 39962 ft | 485 kts | 27° |
| 2026-05-06 04:15 | 40.16057 | -74.12351 | 39961 ft | 486 kts | 27° |
| 2026-05-06 04:16 | 40.21543 | -74.07193 | 39962 ft | 486 kts | 27° |
| 2026-05-06 04:16 | 40.27034 | -74.02027 | 39956 ft | 487 kts | 27° |
| 2026-05-06 04:17 | 40.29785 | -73.99436 | 39785 ft | 487 kts | 28° |
| 2026-05-06 04:17 | 40.32506 | -73.96879 | 39328 ft | 485 kts | 27° |
| 2026-05-06 04:17 | 40.35318 | -73.94627 | 38713 ft | 476 kts | 19° |
| 2026-05-06 04:17 | 40.38282 | -73.92695 | 37966 ft | 474 kts | 18° |
| 2026-05-06 04:18 | 40.41252 | -73.90833 | 37292 ft | 472 kts | 18° |
| 2026-05-06 04:18 | 40.43224 | -73.89610 | 36884 ft | 472 kts | 18° |
| 2026-05-06 04:18 | 40.46200 | -73.87771 | 36179 ft | 472 kts | 19° |
| 2026-05-06 04:18 | 40.49184 | -73.85921 | 35484 ft | 473 kts | 20° |
| 2026-05-06 04:19 | 40.53143 | -73.83465 | 34624 ft | 474 kts | 21° |
| 2026-05-06 04:19 | 40.55653 | -73.81904 | 34149 ft | 474 kts | 21° |
| 2026-05-06 04:19 | 40.57470 | -73.80774 | 33784 ft | 473 kts | 21° |
| 2026-05-06 04:19 | 40.60430 | -73.78907 | 33215 ft | 472 kts | 23° |
| 2026-05-06 04:20 | 40.63228 | -73.76634 | 32663 ft | 474 kts | 34° |
| 2026-05-06 04:20 | 40.65669 | -73.73698 | 32103 ft | 476 kts | 44° |
| 2026-05-06 04:20 | 40.67897 | -73.70486 | 31511 ft | 474 kts | 45° |
| 2026-05-06 04:20 | 40.70098 | -73.67248 | 30955 ft | 472 kts | 45° |
| 2026-05-06 04:21 | 40.72284 | -73.64034 | 30371 ft | 470 kts | 46° |
| 2026-05-06 04:21 | 40.74438 | -73.60870 | 29803 ft | 468 kts | 46° |
| 2026-05-06 04:21 | 40.76607 | -73.57683 | 29230 ft | 465 kts | 46° |
| 2026-05-06 04:21 | 40.78761 | -73.54518 | 28636 ft | 462 kts | 46° |
| 2026-05-06 04:22 | 40.80902 | -73.51369 | 28116 ft | 459 kts | 45° |
| 2026-05-06 04:22 | 40.83031 | -73.48238 | 27552 ft | 457 kts | 45° |
| 2026-05-06 04:22 | 40.85154 | -73.45112 | 27093 ft | 462 kts | 46° |
| 2026-05-06 04:23 | 40.89509 | -73.38695 | 26501 ft | 470 kts | 46° |
| 2026-05-06 04:23 | 40.91698 | -73.35459 | 26238 ft | 471 kts | 46° |
| 2026-05-06 04:23 | 40.93882 | -73.32227 | 25994 ft | 471 kts | 46° |
| 2026-05-06 04:23 | 40.96060 | -73.29002 | 25735 ft | 470 kts | 46° |
| 2026-05-06 04:24 | 40.98235 | -73.25776 | 25512 ft | 469 kts | 46° |
| 2026-05-06 04:24 | 41.00403 | -73.22559 | 25267 ft | 469 kts | 46° |
| 2026-05-06 04:24 | 41.02572 | -73.19338 | 25025 ft | 468 kts | 46° |
| 2026-05-06 04:24 | 41.04657 | -73.16238 | 24791 ft | 467 kts | 46° |
| 2026-05-06 04:25 | 41.06813 | -73.13028 | 24550 ft | 466 kts | 46° |
| 2026-05-06 04:25 | 41.08969 | -73.09815 | 24311 ft | 465 kts | 46° |
| 2026-05-06 04:25 | 41.11120 | -73.06607 | 24076 ft | 464 kts | 46° |
| 2026-05-06 04:25 | 41.13261 | -73.03410 | 23830 ft | 464 kts | 47° |
| 2026-05-06 04:26 | 41.15403 | -73.00208 | 23600 ft | 463 kts | 47° |
| 2026-05-06 04:26 | 41.17544 | -72.97005 | 23330 ft | 463 kts | 47° |
| 2026-05-06 04:26 | 41.19677 | -72.93802 | 23059 ft | 462 kts | 47° |
| 2026-05-06 04:26 | 41.21566 | -72.90358 | 22875 ft | 458 kts | 60° |
| 2026-05-06 04:27 | 41.23063 | -72.86648 | 22779 ft | 456 kts | 63° |
| 2026-05-06 04:27 | 41.24498 | -72.82884 | 22689 ft | 455 kts | 64° |
| 2026-05-06 04:27 | 41.25907 | -72.79175 | 22590 ft | 454 kts | 64° |
| 2026-05-06 04:27 | 41.27335 | -72.75422 | 22473 ft | 453 kts | 63° |
| 2026-05-06 04:28 | 41.28761 | -72.71677 | 22377 ft | 453 kts | 63° |
| 2026-05-06 04:28 | 41.30179 | -72.67951 | 22304 ft | 452 kts | 63° |
| 2026-05-06 04:28 | 41.31601 | -72.64214 | 22182 ft | 451 kts | 63° |
| 2026-05-06 04:28 | 41.33016 | -72.60493 | 22079 ft | 451 kts | 63° |
| 2026-05-06 04:29 | 41.34427 | -72.56775 | 21965 ft | 448 kts | 63° |
| 2026-05-06 04:29 | 41.35829 | -72.53080 | 21873 ft | 445 kts | 63° |
| 2026-05-06 04:29 | 41.37219 | -72.49409 | 21763 ft | 444 kts | 63° |
| 2026-05-06 04:29 | 41.38609 | -72.45736 | 21665 ft | 444 kts | 63° |
| 2026-05-06 04:30 | 41.39994 | -72.42070 | 21551 ft | 443 kts | 63° |
| 2026-05-06 04:30 | 41.41377 | -72.38406 | 21451 ft | 442 kts | 63° |
| 2026-05-06 04:30 | 41.42756 | -72.34747 | 21347 ft | 442 kts | 63° |
| 2026-05-06 04:30 | 41.44129 | -72.31098 | 21246 ft | 441 kts | 64° |
| 2026-05-06 04:31 | 41.45485 | -72.27493 | 21147 ft | 440 kts | 64° |
| 2026-05-06 04:31 | 41.46855 | -72.23843 | 21029 ft | 439 kts | 64° |
| 2026-05-06 04:31 | 41.48220 | -72.20207 | 20918 ft | 438 kts | 63° |
| 2026-05-06 04:31 | 41.49565 | -72.16578 | 20576 ft | 435 kts | 64° |
| 2026-05-06 04:32 | 41.50885 | -72.12954 | 20256 ft | 434 kts | 64° |
| 2026-05-06 04:32 | 41.52203 | -72.09335 | 19965 ft | 432 kts | 64° |
| 2026-05-06 04:32 | 41.53516 | -72.05732 | 19669 ft | 430 kts | 64° |
| 2026-05-06 04:32 | 41.54821 | -72.02152 | 19384 ft | 428 kts | 64° |
| 2026-05-06 04:33 | 41.56118 | -71.98577 | 19077 ft | 427 kts | 65° |
| 2026-05-06 04:33 | 41.57261 | -71.94924 | 18787 ft | 424 kts | 70° |
| 2026-05-06 04:33 | 41.58314 | -71.91257 | 18505 ft | 423 kts | 70° |
| 2026-05-06 04:33 | 41.59370 | -71.87609 | 18183 ft | 422 kts | 70° |
| 2026-05-06 04:34 | 41.60440 | -71.83964 | 17882 ft | 420 kts | 69° |
| 2026-05-06 04:34 | 41.61503 | -71.80331 | 17593 ft | 418 kts | 70° |
| 2026-05-06 04:34 | 41.62557 | -71.76726 | 17353 ft | 416 kts | 70° |
| 2026-05-06 04:34 | 41.63611 | -71.73131 | 17087 ft | 414 kts | 70° |
| 2026-05-06 04:35 | 41.64657 | -71.69566 | 16806 ft | 412 kts | 69° |
| 2026-05-06 04:35 | 41.65697 | -71.66024 | 16604 ft | 403 kts | 69° |
| 2026-05-06 04:35 | 41.66693 | -71.62634 | 16375 ft | 390 kts | 70° |
| 2026-05-06 04:35 | 41.67671 | -71.59298 | 16140 ft | 379 kts | 70° |
| 2026-05-06 04:36 | 41.68627 | -71.56050 | 15771 ft | 372 kts | 70° |
| 2026-05-06 04:36 | 41.69561 | -71.52856 | 15469 ft | 364 kts | 70° |
| 2026-05-06 04:36 | 41.70474 | -71.49726 | 15225 ft | 360 kts | 70° |
| 2026-05-06 04:36 | 41.71384 | -71.46600 | 14986 ft | 359 kts | 70° |
| 2026-05-06 04:37 | 41.72320 | -71.43498 | 14704 ft | 359 kts | 65° |
| 2026-05-06 04:37 | 41.73482 | -71.40547 | 14479 ft | 358 kts | 60° |
| 2026-05-06 04:37 | 41.74721 | -71.37657 | 14232 ft | 356 kts | 60° |
| 2026-05-06 04:37 | 41.75954 | -71.34796 | 13984 ft | 354 kts | 60° |
| 2026-05-06 04:38 | 41.77181 | -71.31937 | 13726 ft | 353 kts | 60° |
| 2026-05-06 04:38 | 41.78400 | -71.29090 | 13469 ft | 351 kts | 60° |
| 2026-05-06 04:38 | 41.79616 | -71.26254 | 13231 ft | 350 kts | 60° |
| 2026-05-06 04:38 | 41.80804 | -71.23468 | 12982 ft | 348 kts | 60° |
| 2026-05-06 04:39 | 41.82017 | -71.20614 | 12749 ft | 347 kts | 60° |
| 2026-05-06 04:39 | 41.83206 | -71.17814 | 12512 ft | 345 kts | 60° |
| 2026-05-06 04:39 | 41.84379 | -71.15053 | 12272 ft | 344 kts | 60° |
| 2026-05-06 04:39 | 41.85545 | -71.12306 | 12125 ft | 332 kts | 61° |
| 2026-05-06 04:40 | 41.86693 | -71.09639 | 11858 ft | 329 kts | 60° |
| 2026-05-06 04:40 | 41.87844 | -71.06981 | 11628 ft | 330 kts | 60° |
| 2026-05-06 04:40 | 41.88992 | -71.04327 | 11444 ft | 328 kts | 60° |
| 2026-05-06 04:40 | 41.90132 | -71.01687 | 11242 ft | 327 kts | 60° |
| 2026-05-06 04:41 | 41.91272 | -70.99045 | 11061 ft | 326 kts | 60° |
| 2026-05-06 04:41 | 41.92395 | -70.96441 | 10845 ft | 325 kts | 60° |
| 2026-05-06 04:41 | 41.93526 | -70.93814 | 10654 ft | 324 kts | 60° |
| 2026-05-06 04:41 | 41.94648 | -70.91204 | 10463 ft | 323 kts | 60° |
| 2026-05-06 04:42 | 41.95770 | -70.88594 | 10251 ft | 322 kts | 61° |
| 2026-05-06 04:42 | 41.96887 | -70.85993 | 10070 ft | 321 kts | 60° |
| 2026-05-06 04:42 | 41.97988 | -70.83427 | 9876 ft | 320 kts | 60° |
| 2026-05-06 04:42 | 41.99058 | -70.80931 | 9685 ft | 319 kts | 60° |
| 2026-05-06 04:43 | 42.00164 | -70.78347 | 9502 ft | 318 kts | 60° |
| 2026-05-06 04:43 | 42.01342 | -70.75907 | 9271 ft | 317 kts | 51° |
| 2026-05-06 04:43 | 42.02627 | -70.73884 | 9101 ft | 317 kts | 47° |
| 2026-05-06 04:43 | 42.04026 | -70.71806 | 8933 ft | 316 kts | 47° |
| 2026-05-06 04:44 | 42.05344 | -70.69848 | 8737 ft | 315 kts | 47° |
| 2026-05-06 04:44 | 42.06806 | -70.67668 | 8557 ft | 315 kts | 47° |
| 2026-05-06 04:44 | 42.08147 | -70.65661 | 8375 ft | 314 kts | 47° |
| 2026-05-06 04:44 | 42.09512 | -70.63620 | 8204 ft | 314 kts | 47° |
| 2026-05-06 04:45 | 42.10898 | -70.61939 | 8033 ft | 311 kts | 30° |
| 2026-05-06 04:45 | 42.12842 | -70.60928 | 7770 ft | 304 kts | 8° |
| 2026-05-06 04:45 | 42.14902 | -70.60376 | 7470 ft | 301 kts | 6° |
| 2026-05-06 04:45 | 42.16908 | -70.59864 | 7199 ft | 301 kts | 6° |
| 2026-05-06 04:46 | 42.18963 | -70.59319 | 6900 ft | 300 kts | 6° |
| 2026-05-06 04:46 | 42.20975 | -70.58773 | 6620 ft | 298 kts | 6° |
| 2026-05-06 04:46 | 42.22926 | -70.58236 | 6349 ft | 297 kts | 6° |
| 2026-05-06 04:46 | 42.24811 | -70.57713 | 6064 ft | 296 kts | 6° |
| 2026-05-06 04:47 | 42.26819 | -70.57155 | 5782 ft | 295 kts | 6° |
| 2026-05-06 04:47 | 42.28830 | -70.56595 | 5508 ft | 295 kts | 6° |
| 2026-05-06 04:47 | 42.30835 | -70.56100 | 5231 ft | 291 kts | 360° |
| 2026-05-06 04:47 | 42.32775 | -70.56413 | 5042 ft | 274 kts | 330° |
| 2026-05-06 04:48 | 42.34312 | -70.57769 | 5002 ft | 261 kts | 310° |
| 2026-05-06 04:48 | 42.35627 | -70.59460 | 5016 ft | 260 kts | 308° |
| 2026-05-06 04:48 | 42.36919 | -70.61179 | 5005 ft | 261 kts | 308° |
| 2026-05-06 04:48 | 42.38215 | -70.62898 | 5002 ft | 261 kts | 308° |
| 2026-05-06 04:49 | 42.39514 | -70.64616 | 5002 ft | 261 kts | 308° |
| 2026-05-06 04:49 | 42.40811 | -70.66326 | 4995 ft | 260 kts | 308° |
| 2026-05-06 04:49 | 42.42109 | -70.68037 | 4996 ft | 260 kts | 308° |
| 2026-05-06 04:49 | 42.43409 | -70.69750 | 4990 ft | 260 kts | 308° |
| 2026-05-06 04:50 | 42.44706 | -70.71461 | 4990 ft | 260 kts | 308° |
| 2026-05-06 04:50 | 42.46003 | -70.73171 | 4989 ft | 260 kts | 308° |
| 2026-05-06 04:50 | 42.47282 | -70.74857 | 4999 ft | 260 kts | 308° |
| 2026-05-06 04:50 | 42.48581 | -70.76573 | 4989 ft | 261 kts | 308° |
| 2026-05-06 04:51 | 42.49881 | -70.78291 | 4991 ft | 261 kts | 308° |
| 2026-05-06 04:51 | 42.51184 | -70.79985 | 4978 ft | 253 kts | 310° |
| 2026-05-06 04:51 | 42.52668 | -70.81182 | 4976 ft | 250 kts | 335° |
| 2026-05-06 04:51 | 42.54419 | -70.81242 | 4998 ft | 261 kts | 7° |
| 2026-05-06 04:52 | 42.56176 | -70.80486 | 4986 ft | 265 kts | 14° |
| 2026-05-06 04:52 | 42.57885 | -70.79610 | 4784 ft | 262 kts | 15° |
| 2026-05-06 04:52 | 42.59617 | -70.78826 | 4318 ft | 260 kts | 3° |
| 2026-05-06 04:52 | 42.61312 | -70.78976 | 4045 ft | 239 kts | 330° |
| 2026-05-06 04:53 | 42.62599 | -70.80192 | 3987 ft | 217 kts | 298° |
| 2026-05-06 04:53 | 42.63120 | -70.81984 | 3990 ft | 199 kts | 268° |
| 2026-05-06 04:53 | 42.63037 | -70.83776 | 3979 ft | 181 kts | 257° |
| 2026-05-06 04:53 | 42.62842 | -70.85394 | 3989 ft | 167 kts | 256° |
| 2026-05-06 04:54 | 42.62592 | -70.86894 | 3994 ft | 161 kts | 246° |
| 2026-05-06 04:54 | 42.61786 | -70.87951 | 3991 ft | 166 kts | 217° |
| 2026-05-06 04:54 | 42.60739 | -70.88659 | 3993 ft | 169 kts | 209° |
| 2026-05-06 04:54 | 42.59649 | -70.89254 | 3984 ft | 169 kts | 207° |
| 2026-05-06 04:55 | 42.58540 | -70.89807 | 3986 ft | 170 kts | 206° |
| 2026-05-06 04:55 | 42.57429 | -70.90344 | 3991 ft | 169 kts | 207° |
| 2026-05-06 04:55 | 42.56340 | -70.90872 | 3912 ft | 162 kts | 207° |
| 2026-05-06 04:55 | 42.55294 | -70.91385 | 3736 ft | 158 kts | 207° |
| 2026-05-06 04:56 | 42.54263 | -70.91890 | 3508 ft | 156 kts | 206° |
| 2026-05-06 04:56 | 42.53259 | -70.92375 | 3291 ft | 154 kts | 208° |
| 2026-05-06 04:56 | 42.52254 | -70.92866 | 3084 ft | 152 kts | 207° |
| 2026-05-06 04:56 | 42.51260 | -70.93350 | 2878 ft | 151 kts | 207° |
| 2026-05-06 04:57 | 42.50280 | -70.93825 | 2679 ft | 148 kts | 208° |
| 2026-05-06 04:57 | 42.49324 | -70.94290 | 2476 ft | 144 kts | 208° |
| 2026-05-06 04:57 | 42.48376 | -70.94751 | 2306 ft | 145 kts | 208° |
| 2026-05-06 04:57 | 42.47424 | -70.95214 | 2103 ft | 145 kts | 208° |
| 2026-05-06 04:58 | 42.46481 | -70.95672 | 1922 ft | 143 kts | 207° |
| 2026-05-06 04:58 | 42.45546 | -70.96125 | 1735 ft | 141 kts | 207° |
| 2026-05-06 04:58 | 42.44666 | -70.96548 | 1553 ft | 126 kts | 208° |
| 2026-05-06 04:58 | 42.43891 | -70.96923 | 1373 ft | 111 kts | 207° |
| 2026-05-06 04:59 | 42.43208 | -70.97256 | 1259 ft | 100 kts | 207° |
| 2026-05-06 04:59 | 42.42558 | -70.97573 | 1109 ft | 100 kts | 207° |
| 2026-05-06 04:59 | 42.41890 | -70.97897 | 969 ft | 103 kts | 204° |
| 2026-05-06 04:59 | 42.41212 | -70.98237 | 786 ft | 107 kts | 202° |
| 2026-05-06 05:00 | 42.40496 | -70.98568 | 660 ft | 110 kts | 199° |
| 2026-05-06 05:00 | 42.39764 | -70.98916 | 485 ft | 114 kts | 201° |
| 2026-05-06 05:00 | 42.39008 | -70.99292 | 366 ft | 119 kts | 202° |
| 2026-05-06 05:00 | 42.38225 | -70.99658 | 220 ft | 117 kts | 203° |
| 2026-05-06 05:01 | 42.37481 | -71.00024 | 67 ft | 111 kts | 201° |
| 2026-05-06 05:01 | 42.36791 | -71.00368 | 32 ft | 91 kts | 200° |
| 2026-05-06 05:01 | 42.36331 | -71.00592 | 32 ft | 49 kts | 199° |
| 2026-05-06 05:01 | 42.36144 | -71.00682 | 28 ft | 13 kts | 200° |
| 2026-05-06 05:02 | 42.36060 | -71.00724 | 33 ft | 13 kts | 202° |
| 2026-05-06 05:02 | 42.35994 | -71.00800 | 33 ft | 13 kts | 226° |
| 2026-05-06 05:02 | 42.35928 | -71.00898 | 32 ft | 16 kts | 228° |
| 2026-05-06 05:02 | 42.35861 | -71.01002 | 32 ft | 11 kts | 230° |
| 2026-05-06 05:03 | 42.35835 | -71.01111 | 32 ft | 14 kts | 270° |
| 2026-05-06 05:03 | 42.35847 | -71.01252 | 32 ft | 17 kts | 278° |
| 2026-05-06 05:03 | 42.35866 | -71.01427 | 32 ft | 20 kts | 281° |
| 2026-05-06 05:03 | 42.35884 | -71.01565 | 32 ft | 15 kts | 280° |
| 2026-05-06 05:04 | 42.35901 | -71.01689 | 32 ft | 11 kts | 280° |
| 2026-05-06 05:04 | 42.35922 | -71.01807 | 32 ft | 15 kts | 290° |
| 2026-05-06 05:04 | 42.35967 | -71.01929 | 32 ft | 13 kts | 301° |
| 2026-05-06 05:04 | 42.36018 | -71.02046 | 32 ft | 16 kts | 300° |
| 2026-05-06 05:05 | 42.36060 | -71.02142 | 32 ft | 16 kts | 300° |
| 2026-05-06 05:05 | 42.36148 | -71.02272 | 32 ft | 16 kts | 339° |
| 2026-05-06 05:05 | 42.36216 | -71.02262 | 32 ft | 3 kts | 24° |
| 2026-05-06 05:05 | 42.36223 | -71.02257 | 32 ft | 3 kts | 24° |
| 2026-05-06 05:06 | 42.36235 | -71.02250 | 32 ft | 0 kts | 24° |
| 2026-05-06 05:06 | 42.36260 | -71.02241 | 32 ft | 9 kts | 2° |
| 2026-05-06 05:07 | 42.36282 | -71.02297 | 32 ft | 7 kts | 250° |
| 2026-05-06 05:07 | 42.36241 | -71.02326 | 32 ft | 8 kts | 199° |
| 2026-05-06 05:07 | 42.36220 | -71.02334 | 32 ft | 0 kts | 196° |
| 2026-05-06 05:08 | 42.36180 | -71.02343 | 32 ft | 9 kts | 187° |
| 2026-05-06 05:08 | 42.36118 | -71.02343 | 32 ft | 7 kts | 174° |
| 2026-05-06 05:08 | 42.36077 | -71.02350 | 32 ft | 4 kts | 216° |
| 2026-05-06 05:08 | 42.36073 | -71.02385 | 32 ft | 3 kts | 285° |
| 2026-05-06 05:09 | 42.36092 | -71.02415 | 32 ft | 5 kts | 308° |
| 2026-05-06 05:09 | 42.36093 | -71.02418 | 32 ft | 0 kts | 308° |